ADDS METAR Data INFO
IDs: Format: Raw Decoded Include TAF

Data at: 0430 UTC 28 Jul 2017

KCPT 280415Z AUTO 17006KT 10SM CLR 29/19 A2994 RMK AO2
KCPT 280355Z AUTO 17005KT 10SM CLR 29/19 A2994 RMK AO2
KCPT 280335Z AUTO 16005KT 10SM CLR 30/18 A2993 RMK AO2
KCPT 280315Z AUTO 17006KT 10SM CLR 30/18 A2993 RMK AO2
KCPT 280255Z AUTO 18006KT 10SM CLR 31/18 A2992 RMK AO2
KCPT 280235Z AUTO 16007KT 10SM CLR 31/18 A2992 RMK AO2
KCPT 280215Z AUTO 16007KT 10SM CLR 32/18 A2992 RMK AO2
KCPT 280155Z AUTO 16008KT 10SM CLR 32/18 A2991 RMK AO2
KCPT 280135Z AUTO 16007KT 10SM CLR 33/18 A2991 RMK AO2
KCPT 280115Z AUTO 16008KT 10SM CLR 33/19 A2991 RMK AO2
KCPT 280055Z AUTO 16007KT 10SM CLR 34/19 A2991 RMK AO2
KCPT 280035Z AUTO 15008KT 10SM CLR 35/19 A2991 RMK AO2
KCPT 280015Z AUTO 15008KT 10SM CLR 35/19 A2991 RMK AO2
KCPT 272355Z AUTO 16007KT 10SM CLR 35/18 A2992 RMK AO2
KCPT 272335Z AUTO 17008KT 10SM CLR 36/17 A2992 RMK AO2
KCPT 272315Z AUTO 18006KT 10SM CLR 36/18 A2993 RMK AO2
KCPT 272255Z AUTO 17007KT 10SM CLR 36/17 A2993 RMK AO2
KCPT 272235Z AUTO 18008KT 10SM CLR 37/17 A2994 RMK AO2
KCPT 272215Z AUTO 21004KT 10SM CLR 37/16 A2994 RMK AO2
KCPT 272155Z AUTO 21006G12KT 10SM CLR 37/17 A2995 RMK AO2
KCPT 272135Z AUTO 19009KT 10SM CLR 38/16 A2996 RMK AO2
KCPT 272115Z AUTO 16007G13KT 10SM CLR 38/17 A2996 RMK AO2
KCPT 272055Z AUTO 17009KT 10SM CLR 38/17 A2997 RMK AO2
KCPT 272035Z AUTO 19008KT 160V220 10SM CLR 38/17 A2998 RMK AO2
KCPT 272015Z AUTO VRB05G14KT 10SM CLR 37/17 A2999 RMK AO2
KCPT 271955Z AUTO 18010KT 10SM CLR 37/18 A2999 RMK AO2
KCPT 271935Z AUTO VRB05G10KT 10SM CLR 37/18 A3000 RMK AO2
KCPT 271915Z AUTO 20008KT 10SM CLR 36/18 A3001 RMK AO2
KCPT 271855Z AUTO 21008G13KT 8SM CLR 36/18 A3002 RMK AO2
KCPT 271835Z AUTO 21006G13KT 10SM CLR 36/18 A3003 RMK AO2
KCPT 271815Z AUTO VRB06G14KT 10SM CLR 35/18 A3004 RMK AO2
KCPT 271755Z AUTO 24008KT 10SM CLR 34/19 A3004 RMK AO2
KCPT 271735Z AUTO 22006KT 10SM CLR 34/19 A3005 RMK AO2
KCPT 271715Z AUTO VRB04G10KT 10SM CLR 33/19 A3006 RMK AO2
KCPT 271655Z AUTO 22011KT 10SM CLR 33/20 A3006 RMK AO2
KCPT 271635Z AUTO 23008KT 10SM CLR 32/20 A3007 RMK AO2
KCPT 271615Z AUTO 22008KT 10SM CLR 32/20 A3007 RMK AO2
KCPT 271555Z AUTO 22009KT 9SM CLR 31/20 A3007 RMK AO2
KCPT 271535Z AUTO 24008KT 9SM CLR 31/21 A3007 RMK AO2
KCPT 271515Z AUTO 22008G15KT 8SM CLR 30/21 A3007 RMK AO2
KCPT 271455Z AUTO 23011G16KT 10SM CLR 30/21 A3007 RMK AO2
KCPT 271435Z AUTO 22010KT 10SM CLR 29/22 A3007 RMK AO2
KCPT 271415Z AUTO 24008G13KT 10SM CLR 28/22 A3006 RMK AO2
KCPT 271355Z AUTO 22008KT 10SM CLR 28/22 A3006 RMK AO2
KCPT 271335Z AUTO 23007KT 10SM CLR 27/23 A3006 RMK AO2
KCPT 271315Z AUTO 22006KT 10SM CLR 26/23 A3006 RMK AO2
KCPT 271255Z AUTO 23005KT 10SM CLR 25/23 A3006 RMK AO2
KCPT 271235Z AUTO 21006KT 10SM CLR 25/23 A3005 RMK AO2
KCPT 271215Z AUTO 21007KT 10SM CLR 25/23 A3004 RMK AO2
KCPT 271155Z AUTO 20008KT 10SM CLR 25/23 A3004 RMK AO2
KCPT 271135Z AUTO 20007KT 10SM CLR 25/23 A3004 RMK AO2
KCPT 271115Z AUTO 20007KT 10SM CLR 25/23 A3004 RMK AO2
KCPT 271055Z AUTO 20005G11KT 10SM CLR 25/23 A3004 RMK AO2
KCPT 271035Z AUTO 20008KT 10SM CLR 25/23 A3003 RMK AO2
KCPT 271015Z AUTO 20005KT 10SM CLR 25/23 A3003 RMK AO2
KCPT 270955Z AUTO 21007KT 10SM CLR 26/23 A3003 RMK AO2
KCPT 270935Z AUTO 21007KT 10SM CLR 26/23 A3003 RMK AO2 LTG DSNT NW
KCPT 270915Z AUTO 19006KT 10SM CLR 26/23 A3003 RMK AO2
KCPT 270855Z AUTO 19006KT 10SM CLR 26/23 A3003 RMK AO2
KCPT 270835Z AUTO 20006G11KT 10SM CLR 26/23 A3003 RMK AO2
KCPT 270815Z AUTO 19008KT 10SM CLR 27/23 A3003 RMK AO2
KCPT 270755Z AUTO 19009KT 10SM CLR 27/22 A3003 RMK AO2
KCPT 270735Z AUTO 19008KT 10SM CLR 27/22 A3003 RMK AO2
KCPT 270715Z AUTO 19011KT 10SM CLR 28/22 A3002 RMK AO2
KCPT 270655Z AUTO 18010G16KT 10SM CLR 28/22 A3002 RMK AO2
KCPT 270635Z AUTO 18009KT 10SM CLR 28/22 A3002 RMK AO2
KCPT 270615Z AUTO 18010G15KT 10SM CLR 28/22 A3002 RMK AO2
KCPT 270555Z AUTO 19011G18KT 10SM CLR 29/22 A3002 RMK AO2
KCPT 270535Z AUTO 18012KT 10SM CLR 29/22 A3002 RMK AO2
KCPT 270515Z AUTO 18011G18KT 10SM CLR 29/21 A3002 RMK AO2
KCPT 270435Z AUTO 16012KT 10SM CLR 30/22 A3002 RMK AO2
KCPT 270415Z AUTO 15009KT 10SM CLR 30/21 A3002 RMK AO2
KCPT 270355Z AUTO 15010G15KT 10SM CLR 30/20 A3002 RMK AO2
KCPT 270335Z AUTO 14011KT 10SM CLR 30/19 A3002 RMK AO2
KCPT 270315Z AUTO 14009KT 10SM CLR 31/19 A3001 RMK AO2
KCPT 270255Z AUTO 15008KT 10SM CLR 31/19 A3001 RMK AO2
KCPT 270235Z AUTO 14009KT 10SM CLR 31/19 A3001 RMK AO2
KCPT 270215Z AUTO 15007KT 10SM CLR 32/18 A3001 RMK AO2
KCPT 270155Z AUTO 16007KT 10SM CLR 32/18 A3001 RMK AO2
KCPT 270135Z AUTO 15008KT 10SM CLR 33/18 A3000 RMK AO2
KCPT 270115Z AUTO 16008KT 10SM CLR 33/18 A3000 RMK AO2
KCPT 270055Z AUTO 16010KT 10SM CLR 34/18 A2999 RMK AO2
KCPT 270035Z AUTO 15011KT 10SM CLR 35/18 A2999 RMK AO2
KCPT 270015Z AUTO 15008G14KT 10SM CLR 35/18 A2999 RMK AO2
KCPT 262355Z AUTO 18008G15KT 10SM CLR 35/18 A2998 RMK AO2
KCPT 262335Z AUTO 17009G15KT 10SM CLR 36/18 A2998 RMK AO2
KCPT 262315Z AUTO 19008G15KT 10SM CLR 36/18 A2999 RMK AO2
KCPT 262255Z AUTO 16009G16KT 10SM CLR 36/18 A2999 RMK AO2
KCPT 262235Z AUTO 17009G16KT 130V190 10SM CLR 36/18 A2999 RMK AO2
KCPT 262215Z AUTO 21010G17KT 10SM CLR 36/19 A3000 RMK AO2
KCPT 262155Z AUTO 18007G13KT 150V210 10SM CLR 37/19 A3000 RMK AO2
KCPT 262135Z AUTO 23008G15KT 10SM CLR 37/18 A3001 RMK AO2
KCPT 262115Z AUTO 20008G15KT 10SM CLR 36/18 A3002 RMK AO2
KCPT 262055Z AUTO 20009G17KT 10SM CLR 36/18 A3002 RMK AO2
KCPT 262035Z AUTO 18015G21KT 150V210 10SM CLR 36/19 A3003 RMK AO2
KCPT 262015Z AUTO 18008G17KT 10SM CLR 36/19 A3004 RMK AO2
KCPT 261955Z AUTO 20010G16KT 10SM CLR 36/20 A3005 RMK AO2
KCPT 261935Z AUTO 17008G14KT 10SM CLR 35/20 A3006 RMK AO2
KCPT 261915Z AUTO 19009KT 10SM CLR 35/20 A3006 RMK AO2
KCPT 261855Z AUTO 20011KT 10SM CLR 35/20 A3007 RMK AO2
KCPT 261835Z AUTO 20011G17KT 10SM CLR 35/20 A3008 RMK AO2
KCPT 261815Z AUTO 20015KT 10SM CLR 34/21 A3008 RMK AO2
KCPT 261755Z AUTO 19012G18KT 160V220 10SM CLR 34/21 A3009 RMK AO2
KCPT 261735Z AUTO 20008G18KT 10SM CLR 33/22 A3010 RMK AO2
KCPT 261715Z AUTO 18011G18KT 10SM CLR 33/23 A3010 RMK AO2
KCPT 261655Z AUTO 19014KT 10SM CLR 32/23 A3010 RMK AO2
KCPT 261635Z AUTO 21013KT 9SM CLR 32/24 A3011 RMK AO2